createdAt,value
2022-12-31T00:07:29.712Z,3.10
2022-12-31T00:19:30.200Z,3.03
2022-12-31T00:31:30.778Z,2.64
2022-12-31T00:43:31.067Z,1.57
2022-12-31T00:55:31.564Z,0.59
2022-12-31T01:07:31.985Z,0.32
2022-12-31T01:19:32.422Z,0.17
2022-12-31T01:31:32.875Z,0.40
2022-12-31T01:43:33.390Z,0.88
2022-12-31T01:55:33.800Z,0.67
2022-12-31T02:07:34.240Z,0.52
2022-12-31T02:19:34.690Z,0.33
2022-12-31T02:31:35.178Z,0.00
2022-12-31T02:43:35.584Z,0.09
2022-12-31T02:55:36.069Z,0.31
2022-12-31T03:07:36.499Z,0.10
2022-12-31T03:19:36.926Z,0.17
2022-12-31T03:31:37.442Z,0.42
2022-12-31T03:43:37.893Z,0.25
2022-12-31T03:55:38.344Z,0.57
2022-12-31T04:07:38.820Z,0.13
2022-12-31T04:19:39.205Z,0.15
2022-12-31T04:31:39.716Z,0.01
2022-12-31T04:43:40.116Z,0.11
2022-12-31T04:55:40.594Z,0.44
2022-12-31T05:07:41.033Z,0.48
2022-12-31T05:19:41.477Z,0.28
2022-12-31T05:31:41.915Z,0.72
2022-12-31T05:43:42.433Z,0.34
2022-12-31T05:55:42.857Z,0.04
2022-12-31T06:07:43.260Z,0.12
2022-12-31T06:19:43.713Z,0.16
2022-12-31T06:31:44.186Z,0.06
2022-12-31T06:43:44.618Z,0.05
2022-12-31T06:55:45.115Z,0.03
2022-12-31T07:07:45.548Z,0.00
2022-12-31T07:19:45.999Z,0.26
2022-12-31T07:31:46.466Z,0.87
2022-12-31T07:43:46.896Z,1.19
2022-12-31T07:55:47.319Z,0.80
2022-12-31T08:07:47.942Z,0.54
2022-12-31T08:19:48.496Z,0.38
2022-12-31T08:31:48.678Z,1.19
2022-12-31T08:43:49.167Z,0.88
2022-12-31T08:55:49.637Z,0.55
2022-12-31T09:07:50.116Z,0.12
2022-12-31T09:19:50.486Z,0.85
2022-12-31T09:31:50.954Z,0.76
2022-12-31T09:43:54.568Z,0.27
2022-12-31T09:55:51.886Z,0.57
2022-12-31T10:07:53.676Z,2.93
2022-12-31T10:19:52.768Z,4.27
2022-12-31T10:31:53.257Z,4.93
2022-12-31T10:43:53.713Z,4.50
2022-12-31T10:55:54.171Z,4.03
2022-12-31T11:07:54.766Z,4.70
2022-12-31T11:19:55.069Z,4.06
2022-12-31T11:31:55.541Z,1.85
2022-12-31T11:43:55.952Z,2.58
2022-12-31T11:55:56.430Z,3.05
2022-12-31T12:07:56.889Z,3.71
2022-12-31T12:19:57.363Z,2.89
2022-12-31T12:31:57.800Z,3.41
2022-12-31T12:43:58.209Z,2.42
2022-12-31T12:55:58.744Z,2.88
2022-12-31T13:07:59.152Z,4.02
2022-12-31T13:19:59.622Z,3.82
2022-12-31T13:32:00.081Z,3.75
2022-12-31T13:44:00.516Z,3.40
2022-12-31T13:56:00.983Z,3.02
2022-12-31T14:08:01.455Z,3.19
2022-12-31T14:20:01.886Z,2.98
2022-12-31T14:32:02.395Z,2.44
2022-12-31T14:44:02.826Z,2.74
2022-12-31T14:56:03.219Z,2.44
2022-12-31T15:08:03.684Z,2.46
2022-12-31T15:20:04.167Z,3.34
2022-12-31T15:32:04.629Z,4.23
2022-12-31T15:44:05.025Z,3.74
2022-12-31T15:56:05.509Z,3.18
2022-12-31T16:08:06.627Z,3.82
2022-12-31T16:20:06.433Z,4.09
2022-12-31T16:32:06.862Z,4.10
2022-12-31T16:44:07.347Z,3.62
2022-12-31T16:56:07.771Z,4.01
2022-12-31T17:08:08.226Z,4.07
2022-12-31T17:20:08.697Z,3.71
2022-12-31T17:32:09.097Z,4.70
2022-12-31T17:44:09.593Z,4.01
2022-12-31T17:56:10.058Z,4.62
2022-12-31T18:08:10.492Z,4.19
2022-12-31T18:20:10.940Z,3.45
2022-12-31T18:32:11.461Z,4.25
2022-12-31T18:44:11.894Z,3.65
2022-12-31T18:56:12.342Z,2.80
2022-12-31T19:08:12.796Z,1.90
2022-12-31T19:20:13.264Z,2.42
2022-12-31T19:32:14.892Z,2.86
2022-12-31T19:44:14.124Z,3.89
2022-12-31T19:56:14.601Z,4.46
2022-12-31T20:08:15.053Z,5.26
2022-12-31T20:20:15.514Z,3.71
2022-12-31T20:32:15.968Z,3.59
2022-12-31T20:44:16.411Z,3.97
2022-12-31T20:56:16.912Z,3.60
2022-12-31T21:08:17.330Z,1.97
2022-12-31T21:20:17.786Z,2.48
2022-12-31T21:32:18.248Z,0.93
2022-12-31T21:44:18.665Z,1.15
2022-12-31T21:56:19.104Z,2.44
2022-12-31T22:08:19.633Z,3.00
2022-12-31T22:20:28.173Z,2.76
2022-12-31T22:32:20.500Z,4.34
2022-12-31T22:44:20.950Z,3.45
2022-12-31T22:56:21.419Z,3.32
2022-12-31T23:08:23.764Z,2.25
2022-12-31T23:20:22.308Z,3.70
2022-12-31T23:32:22.762Z,4.01
2022-12-31T23:44:23.229Z,4.02
2022-12-31T23:56:24.226Z,3.86
